sensor_id;sensor_type;location;lat;lon;timestamp;P1;durP1;ratioP1;P2;durP2;ratioP2
5549;SDS011;2798;42.716;23.256;2023-02-21T00:00:56;5.33;;;2.90;;
5549;SDS011;2798;42.716;23.256;2023-02-21T00:03:40;3.40;;;2.37;;
5549;SDS011;2798;42.716;23.256;2023-02-21T00:06:24;3.50;;;2.33;;
5549;SDS011;2798;42.716;23.256;2023-02-21T00:09:08;4.23;;;2.90;;
5549;SDS011;2798;42.716;23.256;2023-02-21T00:11:52;12.40;;;2.77;;
5549;SDS011;2798;42.716;23.256;2023-02-21T00:14:36;5.47;;;3.03;;
5549;SDS011;2798;42.716;23.256;2023-02-21T00:17:20;3.60;;;2.20;;
5549;SDS011;2798;42.716;23.256;2023-02-21T00:20:04;4.60;;;2.87;;
5549;SDS011;2798;42.716;23.256;2023-02-21T00:22:48;4.60;;;2.97;;
5549;SDS011;2798;42.716;23.256;2023-02-21T00:25:32;5.00;;;2.77;;
5549;SDS011;2798;42.716;23.256;2023-02-21T00:28:17;6.07;;;3.70;;
5549;SDS011;2798;42.716;23.256;2023-02-21T00:31:01;4.63;;;3.03;;
5549;SDS011;2798;42.716;23.256;2023-02-21T00:33:44;5.63;;;3.93;;
5549;SDS011;2798;42.716;23.256;2023-02-21T00:36:28;8.47;;;2.97;;
5549;SDS011;2798;42.716;23.256;2023-02-21T00:39:12;4.40;;;2.53;;
5549;SDS011;2798;42.716;23.256;2023-02-21T00:41:56;3.97;;;2.13;;
5549;SDS011;2798;42.716;23.256;2023-02-21T00:44:40;3.20;;;2.37;;
5549;SDS011;2798;42.716;23.256;2023-02-21T00:47:24;3.30;;;2.23;;
5549;SDS011;2798;42.716;23.256;2023-02-21T00:50:08;3.50;;;1.97;;
5549;SDS011;2798;42.716;23.256;2023-02-21T00:52:52;3.83;;;2.30;;
5549;SDS011;2798;42.716;23.256;2023-02-21T00:55:35;2.40;;;2.10;;
5549;SDS011;2798;42.716;23.256;2023-02-21T00:58:20;3.90;;;2.03;;
5549;SDS011;2798;42.716;23.256;2023-02-21T01:01:04;5.83;;;2.20;;
5549;SDS011;2798;42.716;23.256;2023-02-21T01:03:48;3.17;;;2.03;;
5549;SDS011;2798;42.716;23.256;2023-02-21T01:06:32;3.50;;;2.23;;
5549;SDS011;2798;42.716;23.256;2023-02-21T01:09:16;3.37;;;2.20;;
5549;SDS011;2798;42.716;23.256;2023-02-21T01:12:00;2.50;;;2.00;;
5549;SDS011;2798;42.716;23.256;2023-02-21T01:14:44;3.50;;;2.40;;
5549;SDS011;2798;42.716;23.256;2023-02-21T01:17:28;3.43;;;1.60;;
5549;SDS011;2798;42.716;23.256;2023-02-21T01:20:11;2.10;;;1.80;;
5549;SDS011;2798;42.716;23.256;2023-02-21T01:22:55;2.43;;;1.93;;
5549;SDS011;2798;42.716;23.256;2023-02-21T01:25:39;5.17;;;1.87;;
5549;SDS011;2798;42.716;23.256;2023-02-21T01:28:23;2.90;;;2.20;;
5549;SDS011;2798;42.716;23.256;2023-02-21T01:31:07;3.13;;;1.87;;
5549;SDS011;2798;42.716;23.256;2023-02-21T01:33:51;3.27;;;2.37;;
5549;SDS011;2798;42.716;23.256;2023-02-21T01:36:35;3.00;;;2.27;;
5549;SDS011;2798;42.716;23.256;2023-02-21T01:39:19;2.97;;;2.40;;
5549;SDS011;2798;42.716;23.256;2023-02-21T01:42:03;3.80;;;2.60;;
5549;SDS011;2798;42.716;23.256;2023-02-21T01:44:47;2.43;;;2.10;;
5549;SDS011;2798;42.716;23.256;2023-02-21T01:47:32;2.73;;;2.17;;
5549;SDS011;2798;42.716;23.256;2023-02-21T01:50:23;7.10;;;2.70;;
5549;SDS011;2798;42.716;23.256;2023-02-21T01:53:12;3.60;;;2.20;;
5549;SDS011;2798;42.716;23.256;2023-02-21T01:55:56;5.77;;;2.53;;
5549;SDS011;2798;42.716;23.256;2023-02-21T01:58:42;3.63;;;1.97;;
5549;SDS011;2798;42.716;23.256;2023-02-21T02:04:30;3.67;;;2.23;;
5549;SDS011;2798;42.716;23.256;2023-02-21T02:07:14;4.20;;;1.93;;
5549;SDS011;2798;42.716;23.256;2023-02-21T02:09:58;3.00;;;2.23;;
5549;SDS011;2798;42.716;23.256;2023-02-21T02:12:56;3.07;;;2.30;;
5549;SDS011;2798;42.716;23.256;2023-02-21T02:15:32;2.70;;;2.07;;
5549;SDS011;2798;42.716;23.256;2023-02-21T02:23:28;5.67;;;2.23;;
5549;SDS011;2798;42.716;23.256;2023-02-21T02:36:41;3.00;;;2.00;;
5549;SDS011;2798;42.716;23.256;2023-02-21T02:39:18;6.10;;;2.20;;
5549;SDS011;2798;42.716;23.256;2023-02-21T02:42:07;5.93;;;2.10;;
5549;SDS011;2798;42.716;23.256;2023-02-21T02:44:31;4.80;;;2.10;;
5549;SDS011;2798;42.716;23.256;2023-02-21T02:47:02;10.53;;;2.60;;
5549;SDS011;2798;42.716;23.256;2023-02-21T02:49:28;3.60;;;2.83;;
5549;SDS011;2798;42.716;23.256;2023-02-21T02:51:55;3.97;;;2.70;;
5549;SDS011;2798;42.716;23.256;2023-02-21T02:54:26;2.80;;;2.17;;
5549;SDS011;2798;42.716;23.256;2023-02-21T02:56:51;3.87;;;2.40;;
5549;SDS011;2798;42.716;23.256;2023-02-21T02:59:19;2.00;;;1.77;;
5549;SDS011;2798;42.716;23.256;2023-02-21T03:09:37;4.00;;;1.90;;
5549;SDS011;2798;42.716;23.256;2023-02-21T03:14:40;3.00;;;2.00;;
5549;SDS011;2798;42.716;23.256;2023-02-21T03:17:10;3.60;;;1.90;;
5549;SDS011;2798;42.716;23.256;2023-02-21T03:19:39;2.83;;;1.63;;
5549;SDS011;2798;42.716;23.256;2023-02-21T03:22:16;1.90;;;1.80;;
5549;SDS011;2798;42.716;23.256;2023-02-21T03:24:43;5.50;;;1.83;;
5549;SDS011;2798;42.716;23.256;2023-02-21T03:27:09;3.70;;;1.90;;
5549;SDS011;2798;42.716;23.256;2023-02-21T03:29:36;2.00;;;1.80;;
5549;SDS011;2798;42.716;23.256;2023-02-21T03:32:48;6.20;;;2.60;;
5549;SDS011;2798;42.716;23.256;2023-02-21T03:34:47;2.70;;;2.10;;
5549;SDS011;2798;42.716;23.256;2023-02-21T03:37:20;3.07;;;2.37;;
5549;SDS011;2798;42.716;23.256;2023-02-21T03:39:52;3.90;;;2.90;;
5549;SDS011;2798;42.716;23.256;2023-02-21T03:42:17;2.53;;;2.00;;
5549;SDS011;2798;42.716;23.256;2023-02-21T03:44:43;7.30;;;2.77;;
5549;SDS011;2798;42.716;23.256;2023-02-21T03:47:08;4.80;;;2.20;;
5549;SDS011;2798;42.716;23.256;2023-02-21T03:49:33;2.30;;;2.10;;
5549;SDS011;2798;42.716;23.256;2023-02-21T03:51:58;3.57;;;2.30;;
5549;SDS011;2798;42.716;23.256;2023-02-21T03:54:23;4.10;;;2.50;;
5549;SDS011;2798;42.716;23.256;2023-02-21T03:56:49;3.63;;;2.63;;
5549;SDS011;2798;42.716;23.256;2023-02-21T03:59:14;3.20;;;2.20;;
5549;SDS011;2798;42.716;23.256;2023-02-21T04:01:40;9.93;;;2.73;;
5549;SDS011;2798;42.716;23.256;2023-02-21T04:04:05;7.63;;;2.80;;
5549;SDS011;2798;42.716;23.256;2023-02-21T04:06:30;3.40;;;2.50;;
5549;SDS011;2798;42.716;23.256;2023-02-21T04:09:14;4.90;;;2.10;;
5549;SDS011;2798;42.716;23.256;2023-02-21T04:11:42;4.13;;;2.23;;
5549;SDS011;2798;42.716;23.256;2023-02-21T04:14:08;2.53;;;2.27;;
5549;SDS011;2798;42.716;23.256;2023-02-21T04:16:33;5.10;;;2.67;;
5549;SDS011;2798;42.716;23.256;2023-02-21T04:18:58;2.40;;;2.20;;
5549;SDS011;2798;42.716;23.256;2023-02-21T04:21:24;3.67;;;2.00;;
5549;SDS011;2798;42.716;23.256;2023-02-21T04:23:49;2.70;;;2.20;;
5549;SDS011;2798;42.716;23.256;2023-02-21T04:26:15;4.43;;;2.50;;
5549;SDS011;2798;42.716;23.256;2023-02-21T04:28:40;5.73;;;2.63;;
5549;SDS011;2798;42.716;23.256;2023-02-21T04:31:05;6.27;;;2.30;;
5549;SDS011;2798;42.716;23.256;2023-02-21T04:33:30;5.20;;;2.90;;
5549;SDS011;2798;42.716;23.256;2023-02-21T04:35:56;4.17;;;2.40;;
5549;SDS011;2798;42.716;23.256;2023-02-21T04:38:21;2.93;;;2.30;;
5549;SDS011;2798;42.716;23.256;2023-02-21T04:40:46;4.57;;;2.83;;
5549;SDS011;2798;42.716;23.256;2023-02-21T04:43:11;4.80;;;3.20;;
5549;SDS011;2798;42.716;23.256;2023-02-21T04:45:37;5.07;;;3.00;;
5549;SDS011;2798;42.716;23.256;2023-02-21T04:48:02;3.83;;;2.83;;
5549;SDS011;2798;42.716;23.256;2023-02-21T04:50:27;4.30;;;3.07;;
5549;SDS011;2798;42.716;23.256;2023-02-21T04:52:52;4.17;;;3.40;;
5549;SDS011;2798;42.716;23.256;2023-02-21T04:55:18;2.77;;;2.57;;
5549;SDS011;2798;42.716;23.256;2023-02-21T04:57:43;5.30;;;2.27;;
5549;SDS011;2798;42.716;23.256;2023-02-21T05:00:09;4.70;;;2.77;;
5549;SDS011;2798;42.716;23.256;2023-02-21T05:02:34;3.90;;;2.70;;
5549;SDS011;2798;42.716;23.256;2023-02-21T05:05:00;4.67;;;2.37;;
5549;SDS011;2798;42.716;23.256;2023-02-21T05:07:25;10.87;;;3.43;;
5549;SDS011;2798;42.716;23.256;2023-02-21T05:09:51;12.50;;;2.50;;
5549;SDS011;2798;42.716;23.256;2023-02-21T05:12:16;4.60;;;2.90;;
5549;SDS011;2798;42.716;23.256;2023-02-21T05:14:41;4.93;;;3.07;;
5549;SDS011;2798;42.716;23.256;2023-02-21T05:17:07;6.93;;;4.90;;
5549;SDS011;2798;42.716;23.256;2023-02-21T05:19:33;5.80;;;4.43;;
5549;SDS011;2798;42.716;23.256;2023-02-21T05:21:59;5.30;;;4.43;;
5549;SDS011;2798;42.716;23.256;2023-02-21T05:24:25;16.80;;;6.00;;
5549;SDS011;2798;42.716;23.256;2023-02-21T05:26:51;12.57;;;6.40;;
5549;SDS011;2798;42.716;23.256;2023-02-21T05:29:16;10.53;;;6.47;;
5549;SDS011;2798;42.716;23.256;2023-02-21T05:31:42;11.13;;;6.83;;
5549;SDS011;2798;42.716;23.256;2023-02-21T05:34:08;12.70;;;7.43;;
5549;SDS011;2798;42.716;23.256;2023-02-21T05:36:33;12.57;;;6.87;;
5549;SDS011;2798;42.716;23.256;2023-02-21T05:38:58;16.57;;;8.60;;
5549;SDS011;2798;42.716;23.256;2023-02-21T05:41:24;11.67;;;6.90;;
5549;SDS011;2798;42.716;23.256;2023-02-21T05:43:49;13.47;;;6.53;;
5549;SDS011;2798;42.716;23.256;2023-02-21T05:48:45;9.47;;;6.57;;
5549;SDS011;2798;42.716;23.256;2023-02-21T05:51:10;9.40;;;5.30;;
5549;SDS011;2798;42.716;23.256;2023-02-21T05:53:36;10.73;;;5.60;;
5549;SDS011;2798;42.716;23.256;2023-02-21T05:56:01;12.60;;;4.77;;
5549;SDS011;2798;42.716;23.256;2023-02-21T05:58:26;7.40;;;4.93;;
5549;SDS011;2798;42.716;23.256;2023-02-21T06:00:52;15.53;;;5.30;;
5549;SDS011;2798;42.716;23.256;2023-02-21T06:03:17;14.67;;;5.00;;
5549;SDS011;2798;42.716;23.256;2023-02-21T06:05:42;7.97;;;4.10;;
5549;SDS011;2798;42.716;23.256;2023-02-21T06:08:07;12.20;;;5.00;;
5549;SDS011;2798;42.716;23.256;2023-02-21T06:10:34;7.30;;;4.63;;
5549;SDS011;2798;42.716;23.256;2023-02-21T06:12:59;11.40;;;5.10;;
5549;SDS011;2798;42.716;23.256;2023-02-21T06:15:24;12.30;;;6.13;;
5549;SDS011;2798;42.716;23.256;2023-02-21T06:17:50;10.47;;;4.73;;
5549;SDS011;2798;42.716;23.256;2023-02-21T06:20:15;9.30;;;5.17;;
5549;SDS011;2798;42.716;23.256;2023-02-21T06:22:41;6.63;;;3.70;;
5549;SDS011;2798;42.716;23.256;2023-02-21T06:25:06;11.20;;;3.80;;
5549;SDS011;2798;42.716;23.256;2023-02-21T06:27:31;12.63;;;3.50;;
5549;SDS011;2798;42.716;23.256;2023-02-21T06:29:57;15.03;;;4.33;;
5549;SDS011;2798;42.716;23.256;2023-02-21T06:32:22;8.27;;;3.53;;
5549;SDS011;2798;42.716;23.256;2023-02-21T06:34:47;5.30;;;2.87;;
5549;SDS011;2798;42.716;23.256;2023-02-21T06:37:12;10.57;;;3.30;;
5549;SDS011;2798;42.716;23.256;2023-02-21T06:39:38;5.23;;;3.10;;
5549;SDS011;2798;42.716;23.256;2023-02-21T06:42:04;7.57;;;3.13;;
5549;SDS011;2798;42.716;23.256;2023-02-21T06:44:30;3.67;;;2.70;;
5549;SDS011;2798;42.716;23.256;2023-02-21T06:46:55;5.37;;;3.30;;
5549;SDS011;2798;42.716;23.256;2023-02-21T06:49:21;6.50;;;2.90;;
5549;SDS011;2798;42.716;23.256;2023-02-21T06:51:46;4.67;;;2.83;;
5549;SDS011;2798;42.716;23.256;2023-02-21T06:54:12;4.30;;;2.83;;
5549;SDS011;2798;42.716;23.256;2023-02-21T06:56:37;4.67;;;2.87;;
5549;SDS011;2798;42.716;23.256;2023-02-21T06:59:02;9.57;;;2.83;;
5549;SDS011;2798;42.716;23.256;2023-02-21T07:01:28;8.57;;;2.97;;
5549;SDS011;2798;42.716;23.256;2023-02-21T07:03:54;9.10;;;4.10;;
5549;SDS011;2798;42.716;23.256;2023-02-21T07:06:19;4.83;;;3.17;;
5549;SDS011;2798;42.716;23.256;2023-02-21T07:08:44;10.83;;;3.27;;
5549;SDS011;2798;42.716;23.256;2023-02-21T07:11:10;11.90;;;3.63;;
5549;SDS011;2798;42.716;23.256;2023-02-21T07:13:35;4.90;;;3.33;;
5549;SDS011;2798;42.716;23.256;2023-02-21T07:16:00;9.30;;;4.00;;
5549;SDS011;2798;42.716;23.256;2023-02-21T07:18:26;7.53;;;3.83;;
5549;SDS011;2798;42.716;23.256;2023-02-21T07:20:51;6.40;;;3.90;;
5549;SDS011;2798;42.716;23.256;2023-02-21T07:23:16;11.63;;;4.50;;
5549;SDS011;2798;42.716;23.256;2023-02-21T07:25:42;8.93;;;3.67;;
5549;SDS011;2798;42.716;23.256;2023-02-21T07:28:07;6.70;;;3.83;;
5549;SDS011;2798;42.716;23.256;2023-02-21T07:30:32;7.10;;;3.83;;
5549;SDS011;2798;42.716;23.256;2023-02-21T07:32:58;9.67;;;3.40;;
5549;SDS011;2798;42.716;23.256;2023-02-21T07:35:23;7.27;;;3.10;;
5549;SDS011;2798;42.716;23.256;2023-02-21T07:37:49;9.10;;;3.30;;
5549;SDS011;2798;42.716;23.256;2023-02-21T07:40:14;8.43;;;3.00;;
5549;SDS011;2798;42.716;23.256;2023-02-21T07:42:40;5.50;;;2.93;;
5549;SDS011;2798;42.716;23.256;2023-02-21T07:45:07;6.37;;;3.93;;
5549;SDS011;2798;42.716;23.256;2023-02-21T07:47:33;12.50;;;3.50;;
5549;SDS011;2798;42.716;23.256;2023-02-21T07:49:58;7.10;;;3.07;;
5549;SDS011;2798;42.716;23.256;2023-02-21T07:52:23;8.50;;;3.10;;
5549;SDS011;2798;42.716;23.256;2023-02-21T07:54:48;11.33;;;4.07;;
5549;SDS011;2798;42.716;23.256;2023-02-21T07:57:17;6.63;;;3.33;;
5549;SDS011;2798;42.716;23.256;2023-02-21T07:59:42;5.80;;;3.23;;
5549;SDS011;2798;42.716;23.256;2023-02-21T08:02:08;4.37;;;3.50;;
5549;SDS011;2798;42.716;23.256;2023-02-21T08:04:33;5.80;;;2.97;;
5549;SDS011;2798;42.716;23.256;2023-02-21T08:06:59;5.37;;;2.93;;
5549;SDS011;2798;42.716;23.256;2023-02-21T08:09:24;7.93;;;3.90;;
5549;SDS011;2798;42.716;23.256;2023-02-21T08:11:50;6.10;;;3.33;;
5549;SDS011;2798;42.716;23.256;2023-02-21T08:14:16;9.10;;;3.00;;
5549;SDS011;2798;42.716;23.256;2023-02-21T08:16:41;4.90;;;2.73;;
5549;SDS011;2798;42.716;23.256;2023-02-21T08:19:06;4.20;;;2.67;;
5549;SDS011;2798;42.716;23.256;2023-02-21T08:21:33;3.93;;;2.50;;
5549;SDS011;2798;42.716;23.256;2023-02-21T08:23:58;3.37;;;2.50;;
5549;SDS011;2798;42.716;23.256;2023-02-21T08:26:24;2.40;;;2.20;;
5549;SDS011;2798;42.716;23.256;2023-02-21T08:28:49;3.00;;;2.30;;
5549;SDS011;2798;42.716;23.256;2023-02-21T08:31:15;2.37;;;1.93;;
5549;SDS011;2798;42.716;23.256;2023-02-21T08:33:40;7.00;;;2.63;;
5549;SDS011;2798;42.716;23.256;2023-02-21T08:36:05;6.30;;;2.40;;
5549;SDS011;2798;42.716;23.256;2023-02-21T08:38:31;5.67;;;3.23;;
5549;SDS011;2798;42.716;23.256;2023-02-21T08:40:56;4.97;;;2.67;;
5549;SDS011;2798;42.716;23.256;2023-02-21T08:43:22;3.83;;;2.93;;
5549;SDS011;2798;42.716;23.256;2023-02-21T08:45:47;3.73;;;2.57;;
5549;SDS011;2798;42.716;23.256;2023-02-21T08:48:12;4.10;;;3.10;;
5549;SDS011;2798;42.716;23.256;2023-02-21T08:50:38;2.97;;;2.40;;
5549;SDS011;2798;42.716;23.256;2023-02-21T08:53:03;4.30;;;3.23;;
5549;SDS011;2798;42.716;23.256;2023-02-21T08:55:28;4.80;;;3.10;;
5549;SDS011;2798;42.716;23.256;2023-02-21T08:57:53;4.10;;;2.90;;
5549;SDS011;2798;42.716;23.256;2023-02-21T09:00:20;4.03;;;2.30;;
5549;SDS011;2798;42.716;23.256;2023-02-21T09:02:49;3.27;;;1.90;;
5549;SDS011;2798;42.716;23.256;2023-02-21T09:05:19;7.03;;;2.20;;
5549;SDS011;2798;42.716;23.256;2023-02-21T09:07:48;1.57;;;1.47;;
5549;SDS011;2798;42.716;23.256;2023-02-21T09:10:13;1.83;;;1.73;;
5549;SDS011;2798;42.716;23.256;2023-02-21T09:12:38;5.23;;;1.80;;
5549;SDS011;2798;42.716;23.256;2023-02-21T09:15:04;2.13;;;1.93;;
5549;SDS011;2798;42.716;23.256;2023-02-21T09:17:29;2.60;;;1.97;;
5549;SDS011;2798;42.716;23.256;2023-02-21T09:19:58;7.07;;;2.20;;
5549;SDS011;2798;42.716;23.256;2023-02-21T09:22:23;3.40;;;2.17;;
5549;SDS011;2798;42.716;23.256;2023-02-21T09:24:48;1.90;;;1.50;;
5549;SDS011;2798;42.716;23.256;2023-02-21T09:27:14;2.10;;;1.90;;
5549;SDS011;2798;42.716;23.256;2023-02-21T09:29:41;1.57;;;1.47;;
5549;SDS011;2798;42.716;23.256;2023-02-21T09:32:07;1.50;;;1.40;;
5549;SDS011;2798;42.716;23.256;2023-02-21T09:34:32;2.70;;;2.00;;
5549;SDS011;2798;42.716;23.256;2023-02-21T09:36:57;3.53;;;1.47;;
5549;SDS011;2798;42.716;23.256;2023-02-21T09:39:23;1.40;;;1.30;;
5549;SDS011;2798;42.716;23.256;2023-02-21T09:41:49;1.60;;;1.50;;
5549;SDS011;2798;42.716;23.256;2023-02-21T09:44:18;1.67;;;1.57;;
5549;SDS011;2798;42.716;23.256;2023-02-21T09:49:13;2.53;;;1.60;;
5549;SDS011;2798;42.716;23.256;2023-02-21T09:51:40;1.53;;;1.40;;
5549;SDS011;2798;42.716;23.256;2023-02-21T09:54:08;1.73;;;1.47;;
5549;SDS011;2798;42.716;23.256;2023-02-21T09:56:37;1.47;;;1.33;;
5549;SDS011;2798;42.716;23.256;2023-02-21T09:59:04;2.90;;;1.43;;
5549;SDS011;2798;42.716;23.256;2023-02-21T10:09:12;5.33;;;1.30;;
5549;SDS011;2798;42.716;23.256;2023-02-21T10:14:29;3.87;;;1.47;;
5549;SDS011;2798;42.716;23.256;2023-02-21T10:17:01;1.70;;;1.60;;
5549;SDS011;2798;42.716;23.256;2023-02-21T10:19:30;5.40;;;1.73;;
5549;SDS011;2798;42.716;23.256;2023-02-21T10:21:56;1.87;;;1.60;;
5549;SDS011;2798;42.716;23.256;2023-02-21T10:24:23;1.73;;;1.40;;
5549;SDS011;2798;42.716;23.256;2023-02-21T10:26:51;1.70;;;1.60;;
5549;SDS011;2798;42.716;23.256;2023-02-21T10:29:23;2.67;;;1.40;;
5549;SDS011;2798;42.716;23.256;2023-02-21T10:31:50;1.27;;;1.13;;
5549;SDS011;2798;42.716;23.256;2023-02-21T10:34:26;1.50;;;1.40;;
5549;SDS011;2798;42.716;23.256;2023-02-21T10:36:56;2.70;;;1.40;;
5549;SDS011;2798;42.716;23.256;2023-02-21T10:39:57;1.87;;;1.50;;
5549;SDS011;2798;42.716;23.256;2023-02-21T10:42:59;1.80;;;1.40;;
5549;SDS011;2798;42.716;23.256;2023-02-21T10:44:59;1.23;;;1.10;;
5549;SDS011;2798;42.716;23.256;2023-02-21T10:47:30;1.73;;;1.20;;
5549;SDS011;2798;42.716;23.256;2023-02-21T10:50:06;4.50;;;1.40;;
5549;SDS011;2798;42.716;23.256;2023-02-21T10:52:35;2.53;;;1.70;;
5549;SDS011;2798;42.716;23.256;2023-02-21T10:55:13;4.60;;;1.60;;
5549;SDS011;2798;42.716;23.256;2023-02-21T10:57:43;2.13;;;1.60;;
5549;SDS011;2798;42.716;23.256;2023-02-21T11:00:09;2.60;;;2.30;;
5549;SDS011;2798;42.716;23.256;2023-02-21T11:02:43;2.50;;;1.60;;
5549;SDS011;2798;42.716;23.256;2023-02-21T11:05:13;1.63;;;1.47;;
5549;SDS011;2798;42.716;23.256;2023-02-21T11:07:40;5.97;;;1.90;;
5549;SDS011;2798;42.716;23.256;2023-02-21T11:13:22;1.77;;;1.30;;
5549;SDS011;2798;42.716;23.256;2023-02-21T11:15:41;1.50;;;1.40;;
5549;SDS011;2798;42.716;23.256;2023-02-21T11:18:25;2.13;;;1.63;;
5549;SDS011;2798;42.716;23.256;2023-02-21T11:20:51;1.30;;;1.20;;
5549;SDS011;2798;42.716;23.256;2023-02-21T11:23:17;1.87;;;1.50;;
5549;SDS011;2798;42.716;23.256;2023-02-21T11:25:43;2.83;;;1.73;;
5549;SDS011;2798;42.716;23.256;2023-02-21T11:30:35;1.43;;;1.33;;
5549;SDS011;2798;42.716;23.256;2023-02-21T11:33:01;1.97;;;1.80;;
5549;SDS011;2798;42.716;23.256;2023-02-21T11:40:31;1.67;;;1.57;;
5549;SDS011;2798;42.716;23.256;2023-02-21T11:43:10;5.37;;;1.60;;
5549;SDS011;2798;42.716;23.256;2023-02-21T11:45:36;1.87;;;1.60;;
5549;SDS011;2798;42.716;23.256;2023-02-21T11:48:03;1.57;;;1.47;;
5549;SDS011;2798;42.716;23.256;2023-02-21T11:50:34;3.97;;;1.80;;
5549;SDS011;2798;42.716;23.256;2023-02-21T11:55:25;1.50;;;1.40;;
5549;SDS011;2798;42.716;23.256;2023-02-21T12:02:54;3.93;;;1.60;;
5549;SDS011;2798;42.716;23.256;2023-02-21T12:05:34;1.80;;;1.40;;
5549;SDS011;2798;42.716;23.256;2023-02-21T12:21:32;1.53;;;1.43;;
5549;SDS011;2798;42.716;23.256;2023-02-21T12:51:40;2.63;;;1.87;;
5549;SDS011;2798;42.716;23.256;2023-02-21T12:54:11;1.80;;;1.70;;
5549;SDS011;2798;42.716;23.256;2023-02-21T12:56:41;2.40;;;1.40;;
5549;SDS011;2798;42.716;23.256;2023-02-21T13:01:44;1.80;;;1.57;;
5549;SDS011;2798;42.716;23.256;2023-02-21T13:06:57;2.50;;;1.50;;
5549;SDS011;2798;42.716;23.256;2023-02-21T13:09:30;1.70;;;1.50;;
5549;SDS011;2798;42.716;23.256;2023-02-21T13:12:05;2.90;;;1.60;;
5549;SDS011;2798;42.716;23.256;2023-02-21T13:14:33;1.50;;;1.40;;
5549;SDS011;2798;42.716;23.256;2023-02-21T13:16:59;1.57;;;1.40;;
5549;SDS011;2798;42.716;23.256;2023-02-21T13:19:25;1.40;;;1.30;;
5549;SDS011;2798;42.716;23.256;2023-02-21T13:24:34;2.30;;;1.70;;
5549;SDS011;2798;42.716;23.256;2023-02-21T13:29:36;2.10;;;1.40;;
5549;SDS011;2798;42.716;23.256;2023-02-21T13:34:30;2.73;;;1.80;;
5549;SDS011;2798;42.716;23.256;2023-02-21T13:37:00;3.00;;;1.80;;
5549;SDS011;2798;42.716;23.256;2023-02-21T13:39:32;1.60;;;1.50;;
5549;SDS011;2798;42.716;23.256;2023-02-21T13:42:08;2.97;;;1.40;;
5549;SDS011;2798;42.716;23.256;2023-02-21T13:45:17;2.17;;;1.73;;
5549;SDS011;2798;42.716;23.256;2023-02-21T13:47:22;2.40;;;1.67;;
5549;SDS011;2798;42.716;23.256;2023-02-21T13:49:51;4.00;;;1.73;;
5549;SDS011;2798;42.716;23.256;2023-02-21T13:57:33;1.40;;;1.27;;
5549;SDS011;2798;42.716;23.256;2023-02-21T14:00:06;2.33;;;1.50;;
5549;SDS011;2798;42.716;23.256;2023-02-21T14:08:07;1.63;;;1.30;;
5549;SDS011;2798;42.716;23.256;2023-02-21T14:10:37;1.50;;;1.20;;
5549;SDS011;2798;42.716;23.256;2023-02-21T14:13:14;6.43;;;2.10;;
5549;SDS011;2798;42.716;23.256;2023-02-21T14:15:43;6.10;;;1.53;;
5549;SDS011;2798;42.716;23.256;2023-02-21T14:18:13;2.60;;;1.70;;
5549;SDS011;2798;42.716;23.256;2023-02-21T14:20:39;2.97;;;1.67;;
5549;SDS011;2798;42.716;23.256;2023-02-21T14:23:05;3.60;;;2.20;;
5549;SDS011;2798;42.716;23.256;2023-02-21T14:25:30;3.23;;;1.33;;
5549;SDS011;2798;42.716;23.256;2023-02-21T14:27:57;2.60;;;1.53;;
5549;SDS011;2798;42.716;23.256;2023-02-21T14:30:25;2.27;;;1.40;;
5549;SDS011;2798;42.716;23.256;2023-02-21T14:32:50;2.80;;;1.50;;
5549;SDS011;2798;42.716;23.256;2023-02-21T14:35:25;2.07;;;1.70;;
5549;SDS011;2798;42.716;23.256;2023-02-21T14:37:53;2.93;;;1.70;;
5549;SDS011;2798;42.716;23.256;2023-02-21T14:53:26;4.80;;;1.50;;
5549;SDS011;2798;42.716;23.256;2023-02-21T15:06:33;2.80;;;1.90;;
5549;SDS011;2798;42.716;23.256;2023-02-21T15:09:00;1.60;;;1.50;;
5549;SDS011;2798;42.716;23.256;2023-02-21T15:11:35;3.03;;;1.83;;
5549;SDS011;2798;42.716;23.256;2023-02-21T15:16:38;1.93;;;1.83;;
5549;SDS011;2798;42.716;23.256;2023-02-21T15:19:04;5.90;;;1.90;;
5549;SDS011;2798;42.716;23.256;2023-02-21T15:21:30;4.83;;;1.83;;
5549;SDS011;2798;42.716;23.256;2023-02-21T15:23:59;3.83;;;2.20;;
5549;SDS011;2798;42.716;23.256;2023-02-21T15:26:26;2.83;;;1.97;;
5549;SDS011;2798;42.716;23.256;2023-02-21T15:31:30;5.63;;;2.60;;
5549;SDS011;2798;42.716;23.256;2023-02-21T15:33:56;3.77;;;2.30;;
5549;SDS011;2798;42.716;23.256;2023-02-21T15:36:21;4.90;;;2.20;;
5549;SDS011;2798;42.716;23.256;2023-02-21T15:38:51;4.63;;;2.27;;
5549;SDS011;2798;42.716;23.256;2023-02-21T15:43:54;3.00;;;2.30;;
5549;SDS011;2798;42.716;23.256;2023-02-21T15:46:26;13.03;;;3.27;;
5549;SDS011;2798;42.716;23.256;2023-02-21T15:48:53;2.77;;;2.40;;
5549;SDS011;2798;42.716;23.256;2023-02-21T15:51:20;5.77;;;2.77;;
5549;SDS011;2798;42.716;23.256;2023-02-21T15:54:06;4.30;;;2.27;;
5549;SDS011;2798;42.716;23.256;2023-02-21T15:56:31;4.47;;;2.57;;
5549;SDS011;2798;42.716;23.256;2023-02-21T16:01:33;5.17;;;2.67;;
5549;SDS011;2798;42.716;23.256;2023-02-21T16:04:16;3.33;;;2.63;;
5549;SDS011;2798;42.716;23.256;2023-02-21T16:06:49;2.97;;;2.40;;
5549;SDS011;2798;42.716;23.256;2023-02-21T16:09:17;3.23;;;2.33;;
5549;SDS011;2798;42.716;23.256;2023-02-21T16:11:47;6.93;;;2.30;;
5549;SDS011;2798;42.716;23.256;2023-02-21T16:14:23;2.97;;;2.13;;
5549;SDS011;2798;42.716;23.256;2023-02-21T16:16:49;4.07;;;2.67;;
5549;SDS011;2798;42.716;23.256;2023-02-21T16:19:18;4.73;;;2.70;;
5549;SDS011;2798;42.716;23.256;2023-02-21T16:21:44;3.77;;;2.57;;
5549;SDS011;2798;42.716;23.256;2023-02-21T16:24:26;5.40;;;2.30;;
5549;SDS011;2798;42.716;23.256;2023-02-21T16:27:01;3.53;;;2.63;;
5549;SDS011;2798;42.716;23.256;2023-02-21T16:29:26;4.47;;;2.90;;
5549;SDS011;2798;42.716;23.256;2023-02-21T16:31:51;6.13;;;2.83;;
5549;SDS011;2798;42.716;23.256;2023-02-21T16:34:17;5.07;;;3.13;;
5549;SDS011;2798;42.716;23.256;2023-02-21T16:36:42;5.43;;;2.90;;
5549;SDS011;2798;42.716;23.256;2023-02-21T16:39:07;8.80;;;3.23;;
5549;SDS011;2798;42.716;23.256;2023-02-21T16:41:33;6.97;;;3.50;;
5549;SDS011;2798;42.716;23.256;2023-02-21T16:43:58;19.23;;;5.17;;
5549;SDS011;2798;42.716;23.256;2023-02-21T16:46:24;7.80;;;4.53;;
5549;SDS011;2798;42.716;23.256;2023-02-21T16:48:51;9.57;;;4.50;;
5549;SDS011;2798;42.716;23.256;2023-02-21T16:51:16;7.93;;;5.20;;
5549;SDS011;2798;42.716;23.256;2023-02-21T16:53:42;14.60;;;5.03;;
5549;SDS011;2798;42.716;23.256;2023-02-21T16:56:07;7.67;;;4.77;;
5549;SDS011;2798;42.716;23.256;2023-02-21T16:58:37;7.30;;;4.20;;
5549;SDS011;2798;42.716;23.256;2023-02-21T17:01:09;11.30;;;5.80;;
5549;SDS011;2798;42.716;23.256;2023-02-21T17:03:36;9.53;;;5.53;;
5549;SDS011;2798;42.716;23.256;2023-02-21T17:06:01;10.53;;;5.90;;
5549;SDS011;2798;42.716;23.256;2023-02-21T17:08:27;9.93;;;5.80;;
5549;SDS011;2798;42.716;23.256;2023-02-21T17:10:52;12.73;;;5.67;;
5549;SDS011;2798;42.716;23.256;2023-02-21T17:13:17;8.40;;;5.70;;
5549;SDS011;2798;42.716;23.256;2023-02-21T17:15:43;7.20;;;4.77;;
5549;SDS011;2798;42.716;23.256;2023-02-21T17:18:09;11.17;;;4.47;;
5549;SDS011;2798;42.716;23.256;2023-02-21T17:20:34;10.07;;;4.60;;
5549;SDS011;2798;42.716;23.256;2023-02-21T17:23:00;11.20;;;5.83;;
5549;SDS011;2798;42.716;23.256;2023-02-21T17:25:26;10.03;;;4.77;;
5549;SDS011;2798;42.716;23.256;2023-02-21T17:27:51;6.67;;;3.67;;
5549;SDS011;2798;42.716;23.256;2023-02-21T17:30:19;9.83;;;3.83;;
5549;SDS011;2798;42.716;23.256;2023-02-21T17:32:44;5.10;;;3.20;;
5549;SDS011;2798;42.716;23.256;2023-02-21T17:35:11;7.30;;;3.63;;
5549;SDS011;2798;42.716;23.256;2023-02-21T17:37:38;8.20;;;3.40;;
5549;SDS011;2798;42.716;23.256;2023-02-21T17:40:04;8.13;;;3.27;;
5549;SDS011;2798;42.716;23.256;2023-02-21T17:42:29;4.00;;;2.90;;
5549;SDS011;2798;42.716;23.256;2023-02-21T17:44:55;6.60;;;3.00;;
5549;SDS011;2798;42.716;23.256;2023-02-21T17:47:21;6.90;;;3.10;;
5549;SDS011;2798;42.716;23.256;2023-02-21T17:49:47;6.93;;;3.50;;
5549;SDS011;2798;42.716;23.256;2023-02-21T17:52:13;6.57;;;3.27;;
5549;SDS011;2798;42.716;23.256;2023-02-21T17:54:39;8.93;;;4.73;;
5549;SDS011;2798;42.716;23.256;2023-02-21T17:57:04;6.87;;;4.50;;